sensor_id;sensor_type;location;lat;lon;timestamp;P1;durP1;ratioP1;P2;durP2;ratioP2
64959;SDS011;51487;52.266;10.542;2022-08-19T00:00:33;10.07;;;6.18;;
64959;SDS011;51487;52.266;10.542;2022-08-19T00:02:59;10.10;;;6.32;;
64959;SDS011;51487;52.266;10.542;2022-08-19T00:05:25;10.07;;;6.00;;
64959;SDS011;51487;52.266;10.542;2022-08-19T00:07:50;8.38;;;6.07;;
64959;SDS011;51487;52.266;10.542;2022-08-19T00:10:16;11.55;;;6.47;;
64959;SDS011;51487;52.266;10.542;2022-08-19T00:12:44;10.65;;;6.22;;
64959;SDS011;51487;52.266;10.542;2022-08-19T00:15:10;12.50;;;6.47;;
64959;SDS011;51487;52.266;10.542;2022-08-19T00:17:41;9.30;;;6.38;;
64959;SDS011;51487;52.266;10.542;2022-08-19T00:20:10;9.90;;;6.00;;
64959;SDS011;51487;52.266;10.542;2022-08-19T00:22:42;11.55;;;5.90;;
64959;SDS011;51487;52.266;10.542;2022-08-19T00:25:09;11.73;;;6.25;;
64959;SDS011;51487;52.266;10.542;2022-08-19T00:27:34;9.48;;;6.32;;
64959;SDS011;51487;52.266;10.542;2022-08-19T00:30:00;9.77;;;6.30;;
64959;SDS011;51487;52.266;10.542;2022-08-19T00:32:29;9.80;;;6.30;;
64959;SDS011;51487;52.266;10.542;2022-08-19T00:34:55;9.68;;;6.55;;
64959;SDS011;51487;52.266;10.542;2022-08-19T00:37:22;11.13;;;6.40;;
64959;SDS011;51487;52.266;10.542;2022-08-19T00:39:50;10.00;;;6.47;;
64959;SDS011;51487;52.266;10.542;2022-08-19T00:42:18;11.57;;;6.57;;
64959;SDS011;51487;52.266;10.542;2022-08-19T00:44:45;9.75;;;6.72;;
64959;SDS011;51487;52.266;10.542;2022-08-19T00:47:11;10.90;;;6.55;;
64959;SDS011;51487;52.266;10.542;2022-08-19T00:49:41;8.45;;;6.03;;
64959;SDS011;51487;52.266;10.542;2022-08-19T00:52:55;11.27;;;7.13;;
64959;SDS011;51487;52.266;10.542;2022-08-19T00:55:18;11.35;;;6.05;;
64959;SDS011;51487;52.266;10.542;2022-08-19T00:57:50;8.68;;;6.15;;
64959;SDS011;51487;52.266;10.542;2022-08-19T01:00:22;11.15;;;6.25;;
64959;SDS011;51487;52.266;10.542;2022-08-19T01:02:50;10.50;;;6.50;;
64959;SDS011;51487;52.266;10.542;2022-08-19T01:05:20;7.82;;;6.22;;
64959;SDS011;51487;52.266;10.542;2022-08-19T01:07:52;8.40;;;6.13;;
64959;SDS011;51487;52.266;10.542;2022-08-19T01:10:22;8.57;;;5.88;;
64959;SDS011;51487;52.266;10.542;2022-08-19T01:12:52;8.80;;;6.13;;
64959;SDS011;51487;52.266;10.542;2022-08-19T01:15:20;9.15;;;6.25;;
64959;SDS011;51487;52.266;10.542;2022-08-19T01:17:54;9.13;;;5.93;;
64959;SDS011;51487;52.266;10.542;2022-08-19T01:20:24;10.25;;;5.95;;
64959;SDS011;51487;52.266;10.542;2022-08-19T01:22:54;11.57;;;6.18;;
64959;SDS011;51487;52.266;10.542;2022-08-19T01:25:24;8.80;;;5.80;;
64959;SDS011;51487;52.266;10.542;2022-08-19T01:28:03;8.57;;;6.05;;
64959;SDS011;51487;52.266;10.542;2022-08-19T01:30:31;7.90;;;6.00;;
64959;SDS011;51487;52.266;10.542;2022-08-19T01:33:00;8.18;;;5.93;;
64959;SDS011;51487;52.266;10.542;2022-08-19T01:35:28;8.48;;;6.18;;
64959;SDS011;51487;52.266;10.542;2022-08-19T01:37:57;9.27;;;6.20;;
64959;SDS011;51487;52.266;10.542;2022-08-19T01:40:31;10.43;;;6.10;;
64959;SDS011;51487;52.266;10.542;2022-08-19T01:43:00;10.05;;;6.60;;
64959;SDS011;51487;52.266;10.542;2022-08-19T01:45:29;10.05;;;5.93;;
64959;SDS011;51487;52.266;10.542;2022-08-19T01:47:58;10.00;;;5.93;;
64959;SDS011;51487;52.266;10.542;2022-08-19T01:50:24;9.25;;;5.80;;
64959;SDS011;51487;52.266;10.542;2022-08-19T01:52:50;11.02;;;6.68;;
64959;SDS011;51487;52.266;10.542;2022-08-19T01:55:18;10.10;;;6.22;;
64959;SDS011;51487;52.266;10.542;2022-08-19T01:57:50;7.38;;;5.65;;
64959;SDS011;51487;52.266;10.542;2022-08-19T02:00:21;10.25;;;5.85;;
64959;SDS011;51487;52.266;10.542;2022-08-19T02:02:50;8.45;;;5.80;;
64959;SDS011;51487;52.266;10.542;2022-08-19T02:05:16;9.80;;;6.53;;
64959;SDS011;51487;52.266;10.542;2022-08-19T02:07:43;10.27;;;6.18;;
64959;SDS011;51487;52.266;10.542;2022-08-19T02:10:11;7.30;;;5.75;;
64959;SDS011;51487;52.266;10.542;2022-08-19T02:15:07;7.20;;;5.70;;
64959;SDS011;51487;52.266;10.542;2022-08-19T02:17:34;6.47;;;5.28;;
64959;SDS011;51487;52.266;10.542;2022-08-19T02:20:00;8.95;;;6.38;;
64959;SDS011;51487;52.266;10.542;2022-08-19T02:22:26;11.23;;;6.80;;
64959;SDS011;51487;52.266;10.542;2022-08-19T02:24:52;10.88;;;5.85;;
64959;SDS011;51487;52.266;10.542;2022-08-19T02:27:19;9.60;;;5.90;;
64959;SDS011;51487;52.266;10.542;2022-08-19T02:29:47;7.95;;;6.13;;
64959;SDS011;51487;52.266;10.542;2022-08-19T02:32:14;10.10;;;6.20;;
64959;SDS011;51487;52.266;10.542;2022-08-19T02:34:42;9.45;;;5.88;;
64959;SDS011;51487;52.266;10.542;2022-08-19T02:37:07;11.32;;;6.30;;
64959;SDS011;51487;52.266;10.542;2022-08-19T02:39:53;9.75;;;6.05;;
64959;SDS011;51487;52.266;10.542;2022-08-19T02:42:19;11.00;;;6.63;;
64959;SDS011;51487;52.266;10.542;2022-08-19T02:44:47;10.63;;;7.10;;
64959;SDS011;51487;52.266;10.542;2022-08-19T02:47:13;9.48;;;6.68;;
64959;SDS011;51487;52.266;10.542;2022-08-19T02:49:40;10.40;;;7.43;;
64959;SDS011;51487;52.266;10.542;2022-08-19T02:52:06;11.80;;;6.80;;
64959;SDS011;51487;52.266;10.542;2022-08-19T02:54:31;11.73;;;6.80;;
64959;SDS011;51487;52.266;10.542;2022-08-19T02:56:57;10.68;;;7.53;;
64959;SDS011;51487;52.266;10.542;2022-08-19T02:59:23;9.88;;;6.72;;
64959;SDS011;51487;52.266;10.542;2022-08-19T03:01:51;10.13;;;6.90;;
64959;SDS011;51487;52.266;10.542;2022-08-19T03:04:17;11.02;;;6.32;;
64959;SDS011;51487;52.266;10.542;2022-08-19T03:06:45;14.77;;;8.07;;
64959;SDS011;51487;52.266;10.542;2022-08-19T03:09:12;12.23;;;6.72;;
64959;SDS011;51487;52.266;10.542;2022-08-19T03:11:39;9.45;;;6.90;;
64959;SDS011;51487;52.266;10.542;2022-08-19T03:14:05;9.88;;;6.35;;
64959;SDS011;51487;52.266;10.542;2022-08-19T03:16:35;12.70;;;6.82;;
64959;SDS011;51487;52.266;10.542;2022-08-19T03:19:08;10.32;;;6.93;;
64959;SDS011;51487;52.266;10.542;2022-08-19T03:21:34;10.15;;;6.93;;
64959;SDS011;51487;52.266;10.542;2022-08-19T03:24:01;12.00;;;6.35;;
64959;SDS011;51487;52.266;10.542;2022-08-19T03:26:30;11.98;;;6.70;;
64959;SDS011;51487;52.266;10.542;2022-08-19T03:28:56;9.52;;;6.38;;
64959;SDS011;51487;52.266;10.542;2022-08-19T03:31:24;8.23;;;6.10;;
64959;SDS011;51487;52.266;10.542;2022-08-19T03:33:52;12.25;;;7.50;;
64959;SDS011;51487;52.266;10.542;2022-08-19T03:36:18;10.25;;;6.85;;
64959;SDS011;51487;52.266;10.542;2022-08-19T03:38:51;9.27;;;6.47;;
64959;SDS011;51487;52.266;10.542;2022-08-19T03:41:22;7.43;;;5.88;;
64959;SDS011;51487;52.266;10.542;2022-08-19T03:43:55;9.57;;;6.32;;
64959;SDS011;51487;52.266;10.542;2022-08-19T03:46:23;9.13;;;6.80;;
64959;SDS011;51487;52.266;10.542;2022-08-19T03:48:54;11.07;;;6.63;;
64959;SDS011;51487;52.266;10.542;2022-08-19T03:51:23;8.70;;;6.60;;
64959;SDS011;51487;52.266;10.542;2022-08-19T03:53:53;12.63;;;6.85;;
64959;SDS011;51487;52.266;10.542;2022-08-19T03:56:20;13.38;;;7.60;;
64959;SDS011;51487;52.266;10.542;2022-08-19T03:58:47;11.13;;;7.28;;
64959;SDS011;51487;52.266;10.542;2022-08-19T04:01:15;8.82;;;6.68;;
64959;SDS011;51487;52.266;10.542;2022-08-19T04:03:43;11.73;;;7.30;;
64959;SDS011;51487;52.266;10.542;2022-08-19T04:06:17;9.25;;;7.22;;
64959;SDS011;51487;52.266;10.542;2022-08-19T04:08:49;9.35;;;7.38;;
64959;SDS011;51487;52.266;10.542;2022-08-19T04:11:20;10.15;;;7.10;;
64959;SDS011;51487;52.266;10.542;2022-08-19T04:13:51;11.90;;;7.68;;
64959;SDS011;51487;52.266;10.542;2022-08-19T04:16:19;13.52;;;7.82;;
64959;SDS011;51487;52.266;10.542;2022-08-19T04:18:47;11.43;;;8.00;;
64959;SDS011;51487;52.266;10.542;2022-08-19T04:21:17;12.52;;;7.72;;
64959;SDS011;51487;52.266;10.542;2022-08-19T04:23:47;12.23;;;7.45;;
64959;SDS011;51487;52.266;10.542;2022-08-19T04:26:18;9.38;;;7.25;;
64959;SDS011;51487;52.266;10.542;2022-08-19T04:28:50;11.48;;;7.95;;
64959;SDS011;51487;52.266;10.542;2022-08-19T04:31:26;11.13;;;6.93;;
64959;SDS011;51487;52.266;10.542;2022-08-19T04:33:58;10.88;;;7.43;;
64959;SDS011;51487;52.266;10.542;2022-08-19T04:36:27;10.70;;;7.03;;
64959;SDS011;51487;52.266;10.542;2022-08-19T04:38:57;11.13;;;6.57;;
64959;SDS011;51487;52.266;10.542;2022-08-19T04:41:27;8.55;;;6.95;;
64959;SDS011;51487;52.266;10.542;2022-08-19T04:44:12;10.88;;;7.22;;
64959;SDS011;51487;52.266;10.542;2022-08-19T04:46:39;12.10;;;6.85;;
64959;SDS011;51487;52.266;10.542;2022-08-19T04:49:05;8.60;;;6.72;;
64959;SDS011;51487;52.266;10.542;2022-08-19T04:51:33;10.82;;;7.35;;
64959;SDS011;51487;52.266;10.542;2022-08-19T04:54:00;9.18;;;6.47;;
64959;SDS011;51487;52.266;10.542;2022-08-19T04:56:28;12.88;;;7.07;;
64959;SDS011;51487;52.266;10.542;2022-08-19T04:58:55;8.10;;;6.35;;
64959;SDS011;51487;52.266;10.542;2022-08-19T05:01:22;11.05;;;6.70;;
64959;SDS011;51487;52.266;10.542;2022-08-19T05:03:53;10.35;;;7.13;;
64959;SDS011;51487;52.266;10.542;2022-08-19T05:06:20;8.85;;;6.40;;
64959;SDS011;51487;52.266;10.542;2022-08-19T05:08:48;9.32;;;6.78;;
64959;SDS011;51487;52.266;10.542;2022-08-19T05:11:17;9.77;;;7.18;;
64959;SDS011;51487;52.266;10.542;2022-08-19T05:13:49;8.43;;;6.72;;
64959;SDS011;51487;52.266;10.542;2022-08-19T05:16:16;9.73;;;6.97;;
64959;SDS011;51487;52.266;10.542;2022-08-19T05:18:44;11.23;;;7.20;;
64959;SDS011;51487;52.266;10.542;2022-08-19T05:21:30;9.35;;;6.57;;
64959;SDS011;51487;52.266;10.542;2022-08-19T05:24:15;11.30;;;7.38;;
64959;SDS011;51487;52.266;10.542;2022-08-19T05:26:43;9.85;;;7.20;;
64959;SDS011;51487;52.266;10.542;2022-08-19T05:29:13;11.32;;;7.40;;
64959;SDS011;51487;52.266;10.542;2022-08-19T05:31:42;8.30;;;6.35;;
64959;SDS011;51487;52.266;10.542;2022-08-19T05:34:09;13.00;;;7.60;;
64959;SDS011;51487;52.266;10.542;2022-08-19T05:36:37;8.93;;;6.80;;
64959;SDS011;51487;52.266;10.542;2022-08-19T05:39:07;9.52;;;6.68;;
64959;SDS011;51487;52.266;10.542;2022-08-19T05:41:35;8.43;;;7.10;;
64959;SDS011;51487;52.266;10.542;2022-08-19T05:44:02;7.25;;;6.30;;
64959;SDS011;51487;52.266;10.542;2022-08-19T05:46:34;14.38;;;7.07;;
64959;SDS011;51487;52.266;10.542;2022-08-19T05:49:03;9.48;;;7.03;;
64959;SDS011;51487;52.266;10.542;2022-08-19T05:51:33;15.68;;;7.80;;
64959;SDS011;51487;52.266;10.542;2022-08-19T05:54:02;12.00;;;7.60;;
64959;SDS011;51487;52.266;10.542;2022-08-19T05:56:30;11.27;;;7.00;;
64959;SDS011;51487;52.266;10.542;2022-08-19T05:58:57;10.18;;;7.35;;
64959;SDS011;51487;52.266;10.542;2022-08-19T06:01:23;8.15;;;7.05;;
64959;SDS011;51487;52.266;10.542;2022-08-19T06:03:51;8.93;;;6.90;;
64959;SDS011;51487;52.266;10.542;2022-08-19T06:06:16;9.38;;;7.15;;
64959;SDS011;51487;52.266;10.542;2022-08-19T06:08:42;8.23;;;6.18;;
64959;SDS011;51487;52.266;10.542;2022-08-19T06:13:46;8.70;;;6.55;;
64959;SDS011;51487;52.266;10.542;2022-08-19T06:16:18;11.82;;;6.80;;
64959;SDS011;51487;52.266;10.542;2022-08-19T06:18:48;11.93;;;6.97;;
64959;SDS011;51487;52.266;10.542;2022-08-19T06:21:23;8.95;;;6.35;;
64959;SDS011;51487;52.266;10.542;2022-08-19T06:23:52;13.52;;;6.97;;
64959;SDS011;51487;52.266;10.542;2022-08-19T06:26:18;10.98;;;5.78;;
64959;SDS011;51487;52.266;10.542;2022-08-19T06:28:46;9.50;;;5.80;;
64959;SDS011;51487;52.266;10.542;2022-08-19T06:31:13;9.77;;;6.63;;
64959;SDS011;51487;52.266;10.542;2022-08-19T06:33:49;10.32;;;6.75;;
64959;SDS011;51487;52.266;10.542;2022-08-19T06:36:25;12.63;;;6.38;;
64959;SDS011;51487;52.266;10.542;2022-08-19T06:38:59;8.25;;;6.47;;
64959;SDS011;51487;52.266;10.542;2022-08-19T06:41:31;9.77;;;6.45;;
64959;SDS011;51487;52.266;10.542;2022-08-19T06:44:02;7.85;;;6.00;;
64959;SDS011;51487;52.266;10.542;2022-08-19T06:46:28;9.98;;;6.15;;
64959;SDS011;51487;52.266;10.542;2022-08-19T06:48:53;6.88;;;5.28;;
64959;SDS011;51487;52.266;10.542;2022-08-19T06:51:20;6.68;;;5.20;;
64959;SDS011;51487;52.266;10.542;2022-08-19T06:53:49;7.40;;;5.07;;
64959;SDS011;51487;52.266;10.542;2022-08-19T06:56:18;8.23;;;5.20;;
64959;SDS011;51487;52.266;10.542;2022-08-19T06:58:48;10.20;;;5.28;;
64959;SDS011;51487;52.266;10.542;2022-08-19T07:01:16;6.35;;;4.93;;
64959;SDS011;51487;52.266;10.542;2022-08-19T07:03:42;5.82;;;4.45;;
64959;SDS011;51487;52.266;10.542;2022-08-19T07:06:09;6.15;;;4.32;;
64959;SDS011;51487;52.266;10.542;2022-08-19T07:08:42;8.05;;;4.70;;
64959;SDS011;51487;52.266;10.542;2022-08-19T07:11:10;9.05;;;5.25;;
64959;SDS011;51487;52.266;10.542;2022-08-19T07:13:39;9.80;;;4.82;;
64959;SDS011;51487;52.266;10.542;2022-08-19T07:16:09;5.88;;;4.28;;
64959;SDS011;51487;52.266;10.542;2022-08-19T07:18:39;5.70;;;4.38;;
64959;SDS011;51487;52.266;10.542;2022-08-19T07:21:17;5.63;;;4.00;;
64959;SDS011;51487;52.266;10.542;2022-08-19T07:23:47;7.28;;;4.10;;
64959;SDS011;51487;52.266;10.542;2022-08-19T07:26:18;6.57;;;4.32;;
64959;SDS011;51487;52.266;10.542;2022-08-19T07:28:52;8.00;;;4.90;;
64959;SDS011;51487;52.266;10.542;2022-08-19T07:31:20;6.97;;;5.03;;
64959;SDS011;51487;52.266;10.542;2022-08-19T07:33:49;6.28;;;4.50;;
64959;SDS011;51487;52.266;10.542;2022-08-19T07:36:18;7.03;;;4.80;;
64959;SDS011;51487;52.266;10.542;2022-08-19T07:38:53;7.75;;;4.45;;
64959;SDS011;51487;52.266;10.542;2022-08-19T07:41:21;7.50;;;4.50;;
64959;SDS011;51487;52.266;10.542;2022-08-19T07:43:49;4.97;;;3.97;;
64959;SDS011;51487;52.266;10.542;2022-08-19T07:46:16;8.85;;;4.53;;
64959;SDS011;51487;52.266;10.542;2022-08-19T07:48:45;5.45;;;3.70;;
64959;SDS011;51487;52.266;10.542;2022-08-19T07:51:13;7.40;;;4.03;;
64959;SDS011;51487;52.266;10.542;2022-08-19T07:53:44;7.30;;;3.67;;
64959;SDS011;51487;52.266;10.542;2022-08-19T07:56:11;5.50;;;3.38;;
64959;SDS011;51487;52.266;10.542;2022-08-19T07:58:39;8.25;;;3.65;;
64959;SDS011;51487;52.266;10.542;2022-08-19T08:01:14;4.63;;;3.80;;
64959;SDS011;51487;52.266;10.542;2022-08-19T08:03:45;5.47;;;4.07;;
64959;SDS011;51487;52.266;10.542;2022-08-19T08:06:30;6.40;;;3.83;;
64959;SDS011;51487;52.266;10.542;2022-08-19T08:09:16;6.15;;;3.97;;
64959;SDS011;51487;52.266;10.542;2022-08-19T08:12:05;9.43;;;3.60;;
64959;SDS011;51487;52.266;10.542;2022-08-19T08:14:47;7.03;;;3.75;;
64959;SDS011;51487;52.266;10.542;2022-08-19T08:17:17;7.95;;;3.72;;
64959;SDS011;51487;52.266;10.542;2022-08-19T08:19:46;5.22;;;3.53;;
64959;SDS011;51487;52.266;10.542;2022-08-19T08:22:15;5.45;;;3.65;;
64959;SDS011;51487;52.266;10.542;2022-08-19T08:25:05;5.28;;;3.45;;
64959;SDS011;51487;52.266;10.542;2022-08-19T08:27:35;7.80;;;4.05;;
64959;SDS011;51487;52.266;10.542;2022-08-19T08:30:05;6.20;;;4.03;;
64959;SDS011;51487;52.266;10.542;2022-08-19T08:32:37;5.95;;;3.55;;
64959;SDS011;51487;52.266;10.542;2022-08-19T08:35:05;8.23;;;3.72;;
64959;SDS011;51487;52.266;10.542;2022-08-19T08:37:35;5.88;;;3.50;;
64959;SDS011;51487;52.266;10.542;2022-08-19T08:46:03;7.35;;;3.75;;
64959;SDS011;51487;52.266;10.542;2022-08-19T08:51:39;5.70;;;3.08;;
64959;SDS011;51487;52.266;10.542;2022-08-19T08:54:13;4.47;;;3.30;;
64959;SDS011;51487;52.266;10.542;2022-08-19T08:56:44;9.15;;;3.53;;
64959;SDS011;51487;52.266;10.542;2022-08-19T09:01:53;3.42;;;2.92;;
64959;SDS011;51487;52.266;10.542;2022-08-19T09:04:18;7.35;;;3.13;;
64959;SDS011;51487;52.266;10.542;2022-08-19T09:06:55;5.95;;;3.10;;
64959;SDS011;51487;52.266;10.542;2022-08-19T09:09:51;2.92;;;2.53;;
64959;SDS011;51487;52.266;10.542;2022-08-19T09:15:18;5.22;;;3.20;;
64959;SDS011;51487;52.266;10.542;2022-08-19T09:17:54;4.57;;;2.88;;
64959;SDS011;51487;52.266;10.542;2022-08-19T09:20:20;6.28;;;2.88;;
64959;SDS011;51487;52.266;10.542;2022-08-19T09:22:48;4.05;;;3.03;;
64959;SDS011;51487;52.266;10.542;2022-08-19T09:25:18;5.97;;;2.85;;
64959;SDS011;51487;52.266;10.542;2022-08-19T09:27:50;3.92;;;3.15;;
64959;SDS011;51487;52.266;10.542;2022-08-19T09:30:25;6.05;;;3.05;;
64959;SDS011;51487;52.266;10.542;2022-08-19T09:32:53;6.63;;;3.57;;
64959;SDS011;51487;52.266;10.542;2022-08-19T09:35:21;5.13;;;3.40;;
64959;SDS011;51487;52.266;10.542;2022-08-19T09:37:50;7.28;;;2.97;;
64959;SDS011;51487;52.266;10.542;2022-08-19T09:40:17;4.50;;;3.53;;
64959;SDS011;51487;52.266;10.542;2022-08-19T09:42:44;5.80;;;3.95;;
64959;SDS011;51487;52.266;10.542;2022-08-19T09:45:12;6.60;;;3.47;;
64959;SDS011;51487;52.266;10.542;2022-08-19T09:47:39;4.68;;;3.70;;
64959;SDS011;51487;52.266;10.542;2022-08-19T09:50:05;8.30;;;3.90;;
64959;SDS011;51487;52.266;10.542;2022-08-19T09:52:34;8.07;;;3.90;;
64959;SDS011;51487;52.266;10.542;2022-08-19T09:55:01;5.95;;;4.03;;
64959;SDS011;51487;52.266;10.542;2022-08-19T09:57:32;8.88;;;4.90;;
64959;SDS011;51487;52.266;10.542;2022-08-19T09:59:58;6.15;;;3.63;;
64959;SDS011;51487;52.266;10.542;2022-08-19T10:02:24;7.35;;;4.05;;
64959;SDS011;51487;52.266;10.542;2022-08-19T10:04:50;7.53;;;4.20;;
64959;SDS011;51487;52.266;10.542;2022-08-19T10:07:36;7.40;;;4.22;;
64959;SDS011;51487;52.266;10.542;2022-08-19T10:10:03;5.32;;;4.20;;
64959;SDS011;51487;52.266;10.542;2022-08-19T10:12:31;9.73;;;4.70;;
64959;SDS011;51487;52.266;10.542;2022-08-19T10:14:58;6.70;;;4.63;;
64959;SDS011;51487;52.266;10.542;2022-08-19T10:17:25;6.88;;;5.18;;
64959;SDS011;51487;52.266;10.542;2022-08-19T10:19:51;6.65;;;4.60;;
64959;SDS011;51487;52.266;10.542;2022-08-19T10:22:17;7.60;;;5.28;;
64959;SDS011;51487;52.266;10.542;2022-08-19T10:24:47;7.95;;;5.03;;
64959;SDS011;51487;52.266;10.542;2022-08-19T10:27:12;6.38;;;4.90;;
64959;SDS011;51487;52.266;10.542;2022-08-19T10:29:39;5.50;;;4.40;;
64959;SDS011;51487;52.266;10.542;2022-08-19T10:32:06;7.18;;;4.85;;
64959;SDS011;51487;52.266;10.542;2022-08-19T10:34:34;6.80;;;5.20;;
64959;SDS011;51487;52.266;10.542;2022-08-19T10:37:02;5.95;;;4.50;;
64959;SDS011;51487;52.266;10.542;2022-08-19T10:39:31;6.43;;;5.28;;
64959;SDS011;51487;52.266;10.542;2022-08-19T10:42:05;9.18;;;4.72;;
64959;SDS011;51487;52.266;10.542;2022-08-19T10:44:32;5.88;;;3.97;;
64959;SDS011;51487;52.266;10.542;2022-08-19T10:47:01;7.35;;;4.45;;
64959;SDS011;51487;52.266;10.542;2022-08-19T10:49:28;5.70;;;3.97;;
64959;SDS011;51487;52.266;10.542;2022-08-19T10:51:54;6.47;;;3.80;;
64959;SDS011;51487;52.266;10.542;2022-08-19T10:54:39;8.13;;;4.55;;
64959;SDS011;51487;52.266;10.542;2022-08-19T10:57:24;4.32;;;3.60;;
64959;SDS011;51487;52.266;10.542;2022-08-19T10:59:54;4.80;;;4.00;;
64959;SDS011;51487;52.266;10.542;2022-08-19T11:02:20;5.78;;;3.90;;
64959;SDS011;51487;52.266;10.542;2022-08-19T11:04:46;4.28;;;3.38;;
64959;SDS011;51487;52.266;10.542;2022-08-19T11:07:14;5.50;;;3.28;;
64959;SDS011;51487;52.266;10.542;2022-08-19T11:09:41;3.97;;;3.30;;
64959;SDS011;51487;52.266;10.542;2022-08-19T11:12:07;6.13;;;4.05;;
64959;SDS011;51487;52.266;10.542;2022-08-19T11:14:35;6.55;;;4.25;;
64959;SDS011;51487;52.266;10.542;2022-08-19T11:17:02;5.50;;;3.38;;
64959;SDS011;51487;52.266;10.542;2022-08-19T11:19:29;5.90;;;4.78;;
64959;SDS011;51487;52.266;10.542;2022-08-19T11:21:55;7.07;;;3.58;;
64959;SDS011;51487;52.266;10.542;2022-08-19T11:24:22;6.97;;;5.65;;
64959;SDS011;51487;52.266;10.542;2022-08-19T11:26:52;7.68;;;5.88;;
64959;SDS011;51487;52.266;10.542;2022-08-19T11:29:24;6.53;;;5.10;;
64959;SDS011;51487;52.266;10.542;2022-08-19T11:31:51;6.05;;;4.72;;
64959;SDS011;51487;52.266;10.542;2022-08-19T11:34:19;6.63;;;5.03;;
64959;SDS011;51487;52.266;10.542;2022-08-19T11:36:47;6.20;;;5.15;;
64959;SDS011;51487;52.266;10.542;2022-08-19T11:39:16;6.53;;;4.18;;
64959;SDS011;51487;52.266;10.542;2022-08-19T11:41:45;6.72;;;4.43;;
64959;SDS011;51487;52.266;10.542;2022-08-19T11:44:11;7.75;;;4.75;;
64959;SDS011;51487;52.266;10.542;2022-08-19T11:46:39;6.55;;;5.38;;
64959;SDS011;51487;52.266;10.542;2022-08-19T11:49:06;8.57;;;4.57;;
64959;SDS011;51487;52.266;10.542;2022-08-19T11:51:32;7.85;;;4.50;;
64959;SDS011;51487;52.266;10.542;2022-08-19T11:53:59;5.80;;;4.47;;
64959;SDS011;51487;52.266;10.542;2022-08-19T11:56:25;5.82;;;4.97;;
64959;SDS011;51487;52.266;10.542;2022-08-19T11:58:53;6.95;;;5.70;;
64959;SDS011;51487;52.266;10.542;2022-08-19T12:01:20;7.38;;;4.78;;
64959;SDS011;51487;52.266;10.542;2022-08-19T12:03:48;8.15;;;5.10;;
64959;SDS011;51487;52.266;10.542;2022-08-19T12:06:18;6.90;;;5.30;;
64959;SDS011;51487;52.266;10.542;2022-08-19T12:08:50;9.65;;;4.35;;
64959;SDS011;51487;52.266;10.542;2022-08-19T12:11:17;6.03;;;4.93;;
64959;SDS011;51487;52.266;10.542;2022-08-19T12:13:43;6.90;;;4.90;;
64959;SDS011;51487;52.266;10.542;2022-08-19T12:16:12;5.93;;;4.57;;
64959;SDS011;51487;52.266;10.542;2022-08-19T12:18:42;5.55;;;4.25;;
64959;SDS011;51487;52.266;10.542;2022-08-19T12:21:11;4.80;;;4.10;;
64959;SDS011;51487;52.266;10.542;2022-08-19T12:23:39;4.95;;;3.45;;
64959;SDS011;51487;52.266;10.542;2022-08-19T12:26:06;4.57;;;3.70;;
64959;SDS011;51487;52.266;10.542;2022-08-19T12:28:32;5.25;;;4.30;;
64959;SDS011;51487;52.266;10.542;2022-08-19T12:30:57;6.50;;;4.03;;
64959;SDS011;51487;52.266;10.542;2022-08-19T12:33:23;6.32;;;4.22;;
64959;SDS011;51487;52.266;10.542;2022-08-19T12:35:52;6.85;;;4.10;;
64959;SDS011;51487;52.266;10.542;2022-08-19T12:38:18;6.13;;;3.92;;
64959;SDS011;51487;52.266;10.542;2022-08-19T12:40:47;4.68;;;3.22;;
64959;SDS011;51487;52.266;10.542;2022-08-19T12:43:14;4.88;;;3.97;;
64959;SDS011;51487;52.266;10.542;2022-08-19T12:45:41;5.72;;;3.35;;
64959;SDS011;51487;52.266;10.542;2022-08-19T12:48:10;6.15;;;3.55;;
64959;SDS011;51487;52.266;10.542;2022-08-19T12:50:38;4.13;;;3.70;;
64959;SDS011;51487;52.266;10.542;2022-08-19T12:53:05;4.60;;;3.60;;
64959;SDS011;51487;52.266;10.542;2022-08-19T12:55:31;4.00;;;3.55;;
64959;SDS011;51487;52.266;10.542;2022-08-19T12:57:56;5.10;;;3.80;;
64959;SDS011;51487;52.266;10.542;2022-08-19T13:00:22;3.83;;;3.08;;
64959;SDS011;51487;52.266;10.542;2022-08-19T13:02:50;4.35;;;3.90;;
64959;SDS011;51487;52.266;10.542;2022-08-19T13:05:18;5.13;;;3.38;;
64959;SDS011;51487;52.266;10.542;2022-08-19T13:07:49;7.83;;;3.83;;
64959;SDS011;51487;52.266;10.542;2022-08-19T13:10:19;5.10;;;3.45;;
64959;SDS011;51487;52.266;10.542;2022-08-19T13:12:47;4.72;;;3.50;;
64959;SDS011;51487;52.266;10.542;2022-08-19T13:15:16;4.20;;;3.58;;
64959;SDS011;51487;52.266;10.542;2022-08-19T13:17:47;5.60;;;3.40;;
64959;SDS011;51487;52.266;10.542;2022-08-19T13:20:16;3.63;;;2.88;;
64959;SDS011;51487;52.266;10.542;2022-08-19T13:22:44;4.72;;;3.25;;
64959;SDS011;51487;52.266;10.542;2022-08-19T13:25:11;4.93;;;3.42;;
64959;SDS011;51487;52.266;10.542;2022-08-19T13:27:38;6.15;;;3.22;;
64959;SDS011;51487;52.266;10.542;2022-08-19T13:30:06;4.95;;;3.50;;
64959;SDS011;51487;52.266;10.542;2022-08-19T13:32:53;4.80;;;3.45;;
64959;SDS011;51487;52.266;10.542;2022-08-19T13:38:22;4.90;;;3.33;;
64959;SDS011;51487;52.266;10.542;2022-08-19T13:40:49;3.70;;;3.28;;
64959;SDS011;51487;52.266;10.542;2022-08-19T13:43:17;4.88;;;3.00;;
64959;SDS011;51487;52.266;10.542;2022-08-19T13:45:47;3.88;;;3.13;;
64959;SDS011;51487;52.266;10.542;2022-08-19T13:48:13;8.57;;;3.35;;
64959;SDS011;51487;52.266;10.542;2022-08-19T13:50:42;4.03;;;3.17;;
64959;SDS011;51487;52.266;10.542;2022-08-19T13:53:11;5.55;;;3.00;;
64959;SDS011;51487;52.266;10.542;2022-08-19T13:55:37;4.35;;;3.22;;
64959;SDS011;51487;52.266;10.542;2022-08-19T13:58:05;4.25;;;3.15;;
64959;SDS011;51487;52.266;10.542;2022-08-19T14:00:32;3.83;;;3.42;;
64959;SDS011;51487;52.266;10.542;2022-08-19T14:03:02;5.22;;;3.17;;
64959;SDS011;51487;52.266;10.542;2022-08-19T14:05:29;4.13;;;3.50;;
64959;SDS011;51487;52.266;10.542;2022-08-19T14:07:56;3.83;;;3.22;;
64959;SDS011;51487;52.266;10.542;2022-08-19T14:10:22;4.10;;;3.42;;
64959;SDS011;51487;52.266;10.542;2022-08-19T14:12:52;4.25;;;3.22;;
64959;SDS011;51487;52.266;10.542;2022-08-19T14:15:20;3.80;;;3.40;;
64959;SDS011;51487;52.266;10.542;2022-08-19T14:17:48;7.50;;;3.70;;
64959;SDS011;51487;52.266;10.542;2022-08-19T14:20:18;5.53;;;3.30;;
64959;SDS011;51487;52.266;10.542;2022-08-19T14:22:45;4.35;;;3.50;;
64959;SDS011;51487;52.266;10.542;2022-08-19T14:25:15;4.72;;;3.20;;
64959;SDS011;51487;52.266;10.542;2022-08-19T14:27:43;3.83;;;2.80;;
64959;SDS011;51487;52.266;10.542;2022-08-19T14:30:10;8.30;;;3.60;;
64959;SDS011;51487;52.266;10.542;2022-08-19T14:32:39;4.65;;;3.08;;
64959;SDS011;51487;52.266;10.542;2022-08-19T14:35:05;4.63;;;3.25;;
64959;SDS011;51487;52.266;10.542;2022-08-19T14:37:33;4.93;;;3.22;;
64959;SDS011;51487;52.266;10.542;2022-08-19T14:40:00;4.38;;;3.15;;
64959;SDS011;51487;52.266;10.542;2022-08-19T14:42:27;3.35;;;3.05;;
64959;SDS011;51487;52.266;10.542;2022-08-19T14:44:53;3.58;;;3.17;;
64959;SDS011;51487;52.266;10.542;2022-08-19T14:47:23;5.22;;;3.78;;
64959;SDS011;51487;52.266;10.542;2022-08-19T14:49:48;5.88;;;3.55;;
64959;SDS011;51487;52.266;10.542;2022-08-19T14:52:14;4.95;;;3.42;;
64959;SDS011;51487;52.266;10.542;2022-08-19T14:54:39;4.72;;;3.13;;
64959;SDS011;51487;52.266;10.542;2022-08-19T14:57:05;5.63;;;3.38;;
64959;SDS011;51487;52.266;10.542;2022-08-19T14:59:30;3.58;;;3.20;;
64959;SDS011;51487;52.266;10.542;2022-08-19T15:01:56;5.38;;;3.00;;
64959;SDS011;51487;52.266;10.542;2022-08-19T15:04:22;3.83;;;2.95;;